createdAt,value
2022-12-08T00:01:29.831Z,24.55
2022-12-08T00:04:16.152Z,25.90
2022-12-08T00:07:20.459Z,20.58
2022-12-08T00:10:39.991Z,28.73
2022-12-08T00:13:16.073Z,21.30
2022-12-08T00:16:01.934Z,24.27
2022-12-08T00:18:49.914Z,28.30
2022-12-08T00:21:35.858Z,29.52
2022-12-08T00:24:23.993Z,26.42
2022-12-08T00:27:12.196Z,28.30
2022-12-08T00:29:58.406Z,22.33
2022-12-08T00:32:44.377Z,24.98
2022-12-08T00:35:30.335Z,26.33
2022-12-08T00:38:16.334Z,23.77
2022-12-08T00:41:02.966Z,24.58
2022-12-08T00:43:49.337Z,31.52
2022-12-08T00:46:35.855Z,24.92
2022-12-08T00:49:22.086Z,22.67
2022-12-08T00:52:09.325Z,25.10
2022-12-08T00:54:56.730Z,25.73
2022-12-08T00:57:42.546Z,30.60
2022-12-08T01:00:28.482Z,28.23
2022-12-08T01:03:17.870Z,25.20
2022-12-08T01:06:08.611Z,24.50
2022-12-08T01:08:54.880Z,27.73
2022-12-08T01:11:41.751Z,21.90
2022-12-08T01:14:28.618Z,24.17
2022-12-08T01:17:14.731Z,22.65
2022-12-08T01:20:02.542Z,26.70
2022-12-08T01:22:48.942Z,28.42
2022-12-08T01:25:38.058Z,27.27
2022-12-08T01:28:24.754Z,25.55
2022-12-08T01:31:15.728Z,28.73
2022-12-08T01:34:01.667Z,28.27
2022-12-08T01:36:48.078Z,36.85
2022-12-08T01:39:34.847Z,24.77
2022-12-08T01:42:22.737Z,28.88
2022-12-08T01:45:31.215Z,30.30
2022-12-08T01:48:29.074Z,41.28
2022-12-08T01:51:15.315Z,31.20
2022-12-08T01:54:07.237Z,28.40
2022-12-08T01:57:02.943Z,29.45
2022-12-08T01:59:54.541Z,29.55
2022-12-08T02:02:53.487Z,33.60
2022-12-08T02:05:41.181Z,31.80
2022-12-08T02:08:28.402Z,29.95
2022-12-08T02:11:17.574Z,32.45
2022-12-08T02:14:06.451Z,34.72
2022-12-08T02:17:16.311Z,26.45
2022-12-08T02:20:21.657Z,29.13
2022-12-08T02:26:13.201Z,29.63
2022-12-08T02:29:18.006Z,26.50
2022-12-08T02:32:39.314Z,29.45
2022-12-08T02:35:34.202Z,26.45
2022-12-08T02:39:06.092Z,29.40
2022-12-08T02:42:36.912Z,31.75
2022-12-08T02:45:31.987Z,23.85
2022-12-08T02:48:18.195Z,30.98
2022-12-08T02:51:05.614Z,26.15
2022-12-08T02:53:53.021Z,27.73
2022-12-08T02:56:49.745Z,30.58
2022-12-08T03:00:13.968Z,29.50
2022-12-08T03:03:32.887Z,27.77
2022-12-08T03:06:45.652Z,26.73
2022-12-08T03:09:40.209Z,39.67
2022-12-08T03:12:38.158Z,29.02
2022-12-08T03:15:24.322Z,33.28
2022-12-08T03:18:13.274Z,27.98
2022-12-08T03:21:00.167Z,29.10
2022-12-08T03:23:50.717Z,27.67
2022-12-08T03:26:54.476Z,31.13
2022-12-08T03:29:41.343Z,32.17
2022-12-08T03:32:35.225Z,29.00
2022-12-08T03:35:26.007Z,29.17
2022-12-08T03:38:15.310Z,33.58
2022-12-08T03:41:19.822Z,28.58
2022-12-08T03:44:07.201Z,32.25
2022-12-08T03:46:53.068Z,23.80
2022-12-08T03:49:40.015Z,27.00
2022-12-08T03:52:26.063Z,27.83
2022-12-08T03:55:12.098Z,31.05
2022-12-08T03:57:58.220Z,30.67
2022-12-08T04:00:45.494Z,30.63
2022-12-08T04:03:31.593Z,31.65
2022-12-08T04:06:18.782Z,33.97
2022-12-08T04:09:04.796Z,31.13
2022-12-08T04:11:50.625Z,29.20
2022-12-08T04:14:37.314Z,29.58
2022-12-08T04:17:26.518Z,30.45
2022-12-08T04:20:12.938Z,27.40
2022-12-08T04:22:58.993Z,28.70
2022-12-08T04:25:45.620Z,32.45
2022-12-08T04:28:31.781Z,27.83
2022-12-08T04:31:18.043Z,30.00
2022-12-08T04:34:04.581Z,29.88
2022-12-08T04:36:50.422Z,31.95
2022-12-08T04:39:36.579Z,36.25
2022-12-08T04:42:23.273Z,33.38
2022-12-08T04:45:09.638Z,33.88
2022-12-08T04:47:56.049Z,28.80
2022-12-08T04:50:44.434Z,30.73
2022-12-08T04:53:33.806Z,31.38
2022-12-08T04:56:20.136Z,34.05
2022-12-08T04:59:09.394Z,34.10
2022-12-08T05:01:55.726Z,26.95
2022-12-08T05:04:42.356Z,28.63
2022-12-08T05:07:28.797Z,28.65
2022-12-08T05:10:14.803Z,29.08
2022-12-08T05:13:00.970Z,29.58
2022-12-08T05:15:47.387Z,31.45
2022-12-08T05:18:35.988Z,31.85
2022-12-08T05:21:22.367Z,27.83
2022-12-08T05:24:08.400Z,26.65
2022-12-08T05:26:54.394Z,29.85
2022-12-08T05:29:40.221Z,27.10
2022-12-08T05:32:26.009Z,30.90
2022-12-08T05:35:12.156Z,28.42
2022-12-08T05:37:58.035Z,28.70
2022-12-08T05:40:44.091Z,33.08
2022-12-08T05:43:30.450Z,27.77
2022-12-08T05:46:17.130Z,32.33
2022-12-08T05:49:06.279Z,34.35
2022-12-08T05:51:52.418Z,28.50
2022-12-08T05:54:38.630Z,30.55
2022-12-08T05:57:24.738Z,32.45
2022-12-08T06:00:46.761Z,29.90
2022-12-08T06:03:39.229Z,32.10
2022-12-08T06:06:25.612Z,32.53
2022-12-08T06:09:12.485Z,30.10
2022-12-08T06:11:58.747Z,34.80
2022-12-08T06:14:45.106Z,30.67
2022-12-08T06:17:31.337Z,32.78
2022-12-08T06:20:17.543Z,29.88
2022-12-08T06:23:06.926Z,36.15
2022-12-08T06:25:52.821Z,31.65
2022-12-08T06:28:40.916Z,33.72
2022-12-08T06:31:27.578Z,33.60
2022-12-08T06:34:13.440Z,31.77
2022-12-08T06:36:59.365Z,32.40
2022-12-08T06:39:46.060Z,32.38
2022-12-08T06:42:47.396Z,32.28
2022-12-08T06:45:42.671Z,32.72
2022-12-08T06:48:28.747Z,32.65
2022-12-08T06:51:20.190Z,27.65
2022-12-08T06:54:05.989Z,31.95
2022-12-08T06:56:51.909Z,27.13
2022-12-08T06:59:39.321Z,30.20
2022-12-08T07:02:25.641Z,35.85
2022-12-08T07:05:12.513Z,29.50
2022-12-08T07:07:58.583Z,30.38
2022-12-08T07:10:45.448Z,29.77
2022-12-08T07:13:31.649Z,32.70
2022-12-08T07:16:17.836Z,33.10
2022-12-08T07:19:04.114Z,32.00
2022-12-08T07:21:50.174Z,29.73
2022-12-08T07:24:36.222Z,39.70
2022-12-08T07:27:22.197Z,34.05
2022-12-08T07:30:08.771Z,36.55
2022-12-08T07:32:54.889Z,33.17
2022-12-08T07:35:45.008Z,34.10
2022-12-08T07:38:38.310Z,32.97
2022-12-08T07:41:27.286Z,31.52
2022-12-08T07:44:13.280Z,38.75
2022-12-08T07:46:59.372Z,29.02
2022-12-08T07:49:45.537Z,37.10
2022-12-08T07:52:31.474Z,29.90
2022-12-08T07:55:17.547Z,35.78
2022-12-08T07:58:03.677Z,27.33
2022-12-08T08:00:49.592Z,29.45
2022-12-08T08:03:35.788Z,30.13
2022-12-08T08:06:25.444Z,31.80
2022-12-08T08:09:11.705Z,34.47
2022-12-08T08:12:28.939Z,27.40
2022-12-08T08:15:07.446Z,32.67
2022-12-08T08:17:53.927Z,31.58
2022-12-08T08:20:40.561Z,36.10
2022-12-08T08:23:29.802Z,31.58
2022-12-08T08:26:15.932Z,29.88
2022-12-08T08:29:02.137Z,31.15
2022-12-08T08:31:47.984Z,27.80
2022-12-08T08:34:36.559Z,34.10
2022-12-08T08:37:23.023Z,34.13
2022-12-08T08:40:10.588Z,31.08
2022-12-08T08:42:56.574Z,25.30
2022-12-08T08:45:42.750Z,26.95
2022-12-08T08:48:30.292Z,33.67
2022-12-08T08:51:16.409Z,36.80
2022-12-08T08:54:02.510Z,38.25
2022-12-08T08:56:48.924Z,31.95
2022-12-08T08:59:34.872Z,27.00
2022-12-08T09:02:22.162Z,27.95
2022-12-08T09:05:08.629Z,28.05
2022-12-08T09:07:55.620Z,27.50
2022-12-08T09:10:42.670Z,29.73
2022-12-08T09:13:29.931Z,31.05
2022-12-08T09:16:17.583Z,32.78
2022-12-08T09:19:05.062Z,31.38
2022-12-08T09:21:51.338Z,33.65
2022-12-08T09:24:38.764Z,29.25
2022-12-08T09:27:27.710Z,29.88
2022-12-08T09:30:15.365Z,25.17
2022-12-08T09:33:01.396Z,31.40
2022-12-08T09:35:48.454Z,25.63
2022-12-08T09:38:34.450Z,23.10
2022-12-08T09:41:35.902Z,26.55
2022-12-08T09:44:49.597Z,34.20
2022-12-08T09:47:48.734Z,22.77
2022-12-08T09:50:41.299Z,25.58
2022-12-08T09:53:56.424Z,24.92
2022-12-08T09:56:42.734Z,27.20
2022-12-08T09:59:32.681Z,24.27
2022-12-08T10:02:28.343Z,26.13
2022-12-08T10:05:15.904Z,26.52
2022-12-08T10:08:18.880Z,27.98
2022-12-08T10:11:14.762Z,21.52
2022-12-08T10:14:15.297Z,25.30
2022-12-08T10:17:13.291Z,30.08
2022-12-08T10:20:12.257Z,22.08
2022-12-08T10:23:14.166Z,25.25
2022-12-08T10:26:20.535Z,26.70
2022-12-08T10:29:13.507Z,29.08
2022-12-08T10:32:00.346Z,28.85
2022-12-08T10:35:07.845Z,30.48
2022-12-08T10:38:06.408Z,29.08
2022-12-08T10:40:57.269Z,28.40
2022-12-08T10:43:58.834Z,27.52
2022-12-08T10:46:45.613Z,28.67
2022-12-08T10:49:33.687Z,30.27
2022-12-08T10:52:24.796Z,29.20
2022-12-08T10:55:17.114Z,30.55
2022-12-08T10:58:03.165Z,31.40
2022-12-08T11:00:55.228Z,28.73
2022-12-08T11:03:56.919Z,28.10
2022-12-08T11:06:45.887Z,25.80
2022-12-08T11:09:46.838Z,29.00
2022-12-08T11:12:33.475Z,27.73
2022-12-08T11:15:19.954Z,27.10
2022-12-08T11:18:23.533Z,28.23
2022-12-08T11:21:18.439Z,24.83
2022-12-08T11:24:18.130Z,26.40
2022-12-08T11:27:08.528Z,27.92
2022-12-08T11:29:58.325Z,27.10
2022-12-08T11:32:46.826Z,28.52
2022-12-08T11:35:39.560Z,22.73
2022-12-08T11:38:26.788Z,27.75
2022-12-08T11:41:24.044Z,26.30
2022-12-08T11:44:40.949Z,27.90
2022-12-08T11:47:33.229Z,30.08
2022-12-08T11:50:41.269Z,25.33
2022-12-08T11:53:53.803Z,29.75
2022-12-08T11:56:46.937Z,28.67
2022-12-08T11:59:51.809Z,31.30
2022-12-08T12:02:42.769Z,25.88
2022-12-08T12:06:13.053Z,23.98
2022-12-08T12:09:23.081Z,22.75
2022-12-08T12:12:39.875Z,25.58
2022-12-08T12:15:59.462Z,24.27
2022-12-08T12:18:51.823Z,29.48
2022-12-08T12:21:43.476Z,24.35
2022-12-08T12:24:36.985Z,24.60
2022-12-08T12:27:38.421Z,28.23
2022-12-08T12:30:32.922Z,31.50
2022-12-08T12:33:20.499Z,24.10
2022-12-08T12:36:09.094Z,26.80
2022-12-08T12:39:02.018Z,27.88
2022-12-08T12:41:55.211Z,19.60
2022-12-08T12:44:43.237Z,21.40
2022-12-08T12:47:49.717Z,25.88
2022-12-08T12:50:50.329Z,22.02
2022-12-08T12:53:36.596Z,26.15
2022-12-08T12:56:46.669Z,21.58
2022-12-08T12:59:42.622Z,22.92
2022-12-08T13:02:36.855Z,21.60
2022-12-08T13:05:32.128Z,24.67
2022-12-08T13:08:26.808Z,22.35
2022-12-08T13:11:13.117Z,21.00
2022-12-08T13:14:06.315Z,26.50
2022-12-08T13:16:56.317Z,21.40
2022-12-08T13:19:51.689Z,25.98
2022-12-08T13:22:53.464Z,25.30
2022-12-08T13:25:39.856Z,24.80
2022-12-08T13:28:27.478Z,23.33
2022-12-08T13:31:38.069Z,22.23
2022-12-08T13:34:45.585Z,18.08
2022-12-08T13:37:54.938Z,21.48
2022-12-08T13:40:42.444Z,26.83
2022-12-08T13:44:20.205Z,24.27
2022-12-08T13:52:32.921Z,19.83
2022-12-08T13:54:45.404Z,21.45
2022-12-08T13:57:20.160Z,23.73
2022-12-08T14:00:29.527Z,20.80
2022-12-08T14:03:19.112Z,16.95
2022-12-08T14:06:12.590Z,22.40
2022-12-08T14:09:09.970Z,28.13
2022-12-08T14:12:03.384Z,18.00
2022-12-08T14:15:08.344Z,24.15
2022-12-08T14:17:57.231Z,18.60
2022-12-08T14:21:18.928Z,20.50
2022-12-08T14:23:49.693Z,23.20
2022-12-08T14:26:38.903Z,22.15
2022-12-08T14:29:40.433Z,25.63
2022-12-08T14:32:36.918Z,22.38
2022-12-08T14:35:33.281Z,22.27
2022-12-08T14:38:21.973Z,20.50
2022-12-08T14:41:11.754Z,11.63
2022-12-08T14:44:01.234Z,15.55
2022-12-08T14:47:09.978Z,14.10
2022-12-08T14:49:56.932Z,11.75
2022-12-08T14:52:44.754Z,12.77
2022-12-08T14:55:38.631Z,11.60
2022-12-08T14:58:30.299Z,15.23
2022-12-08T15:01:23.303Z,15.60
2022-12-08T15:04:19.808Z,14.43
2022-12-08T15:07:18.702Z,11.85
2022-12-08T15:10:16.783Z,12.82
2022-12-08T15:13:07.566Z,10.45
2022-12-08T15:15:57.919Z,11.65
2022-12-08T15:18:51.963Z,11.57
2022-12-08T15:21:38.970Z,12.32
2022-12-08T15:24:29.459Z,10.85
2022-12-08T15:27:18.739Z,9.63
2022-12-08T15:30:08.876Z,14.88
2022-12-08T15:32:56.576Z,12.82
2022-12-08T15:35:43.814Z,10.00
2022-12-08T15:38:30.041Z,15.80
2022-12-08T15:41:16.066Z,12.73
2022-12-08T15:44:04.589Z,12.52
2022-12-08T15:46:53.507Z,19.85
2022-12-08T15:49:41.954Z,20.75
2022-12-08T15:52:27.944Z,12.90
2022-12-08T15:55:19.668Z,16.35
2022-12-08T16:01:12.253Z,21.50
2022-12-08T16:04:36.816Z,18.38
2022-12-08T16:07:21.370Z,22.52
2022-12-08T16:10:15.347Z,28.20
2022-12-08T16:16:30.299Z,30.02
2022-12-08T16:19:17.186Z,28.17
2022-12-08T16:22:45.048Z,33.72
2022-12-08T16:25:19.441Z,45.08
2022-12-08T16:28:51.697Z,31.35
2022-12-08T16:31:23.192Z,33.30
2022-12-08T16:34:09.988Z,28.27
2022-12-08T16:36:56.014Z,31.67
2022-12-08T16:39:46.139Z,33.85
2022-12-08T16:42:40.676Z,30.00
2022-12-08T16:48:15.662Z,36.13
2022-12-08T16:51:04.490Z,37.50
2022-12-08T16:53:51.072Z,37.08
2022-12-08T16:56:37.615Z,34.33
2022-12-08T16:59:24.105Z,37.92
2022-12-08T17:02:16.574Z,35.17
2022-12-08T17:05:02.572Z,41.13
2022-12-08T17:07:50.334Z,38.53
2022-12-08T17:10:39.945Z,34.25
2022-12-08T17:13:26.422Z,36.38
2022-12-08T17:16:16.091Z,37.17
2022-12-08T17:19:01.939Z,40.38
2022-12-08T17:21:47.932Z,38.05
2022-12-08T17:24:33.849Z,40.03
2022-12-08T17:27:20.252Z,46.28
2022-12-08T17:30:11.848Z,45.50
2022-12-08T17:32:58.361Z,39.38
2022-12-08T17:35:53.013Z,41.67
2022-12-08T17:38:39.346Z,41.17
2022-12-08T17:41:26.202Z,53.83
2022-12-08T17:44:14.707Z,50.85
2022-12-08T17:47:04.063Z,47.13
2022-12-08T17:49:50.554Z,47.63
2022-12-08T17:52:37.266Z,48.17
2022-12-08T17:55:23.338Z,51.75
2022-12-08T17:58:09.657Z,56.63
2022-12-08T18:00:57.775Z,49.22
2022-12-08T18:03:44.693Z,53.35
2022-12-08T18:06:32.221Z,40.95
2022-12-08T18:09:18.518Z,53.38
2022-12-08T18:12:05.192Z,47.42
2022-12-08T18:14:52.283Z,51.30
2022-12-08T18:17:38.200Z,46.58
2022-12-08T18:20:24.170Z,43.20
2022-12-08T18:23:10.800Z,40.47
2022-12-08T18:25:57.287Z,39.47
2022-12-08T18:28:43.769Z,44.70
2022-12-08T18:31:30.134Z,48.28
2022-12-08T18:34:18.870Z,51.17
2022-12-08T18:37:08.962Z,41.70
2022-12-08T18:39:55.195Z,39.45
2022-12-08T18:42:41.200Z,42.42
2022-12-08T18:45:27.245Z,43.22
2022-12-08T18:48:13.500Z,42.70
2022-12-08T18:50:59.326Z,39.78
2022-12-08T18:53:46.839Z,38.45
2022-12-08T18:56:35.150Z,38.50
2022-12-08T18:59:22.835Z,42.28
2022-12-08T19:02:11.384Z,41.70
2022-12-08T19:04:58.031Z,42.65
2022-12-08T19:07:45.601Z,37.13
2022-12-08T19:10:34.081Z,45.60
2022-12-08T19:13:20.246Z,41.90
2022-12-08T19:16:07.364Z,37.47
2022-12-08T19:18:53.732Z,42.33
2022-12-08T19:21:45.948Z,40.22
2022-12-08T19:24:36.450Z,39.13
2022-12-08T19:27:23.621Z,38.25
2022-12-08T19:30:10.783Z,40.88
2022-12-08T19:32:57.632Z,40.05
2022-12-08T19:35:47.616Z,45.47
2022-12-08T19:42:01.006Z,38.92
2022-12-08T19:47:42.800Z,45.85
2022-12-08T19:50:38.020Z,48.15
2022-12-08T19:53:27.057Z,47.28
2022-12-08T19:56:13.717Z,44.17
2022-12-08T19:59:00.342Z,48.15
2022-12-08T20:01:48.350Z,43.88
2022-12-08T20:04:34.576Z,48.08
2022-12-08T20:07:20.550Z,45.58
2022-12-08T20:10:15.167Z,59.03
2022-12-08T20:13:20.300Z,48.88
2022-12-08T20:16:06.391Z,55.15
2022-12-08T20:18:53.107Z,51.53
2022-12-08T20:21:40.280Z,48.35
2022-12-08T20:24:26.333Z,51.70
2022-12-08T20:27:12.970Z,49.60
2022-12-08T20:29:58.890Z,38.80
2022-12-08T20:32:45.660Z,45.67
2022-12-08T20:35:31.634Z,44.88
2022-12-08T20:38:17.550Z,41.13
2022-12-08T20:41:07.823Z,35.90
2022-12-08T20:43:54.201Z,37.28
2022-12-08T20:46:43.719Z,41.50
2022-12-08T20:49:34.796Z,37.92
2022-12-08T20:52:21.644Z,40.03
2022-12-08T20:55:08.995Z,40.85
2022-12-08T20:57:56.215Z,46.35
2022-12-08T21:00:42.989Z,43.30
2022-12-08T21:03:29.347Z,41.85
2022-12-08T21:06:16.616Z,52.72
2022-12-08T21:09:03.321Z,38.45
2022-12-08T21:11:49.530Z,38.05
2022-12-08T21:14:36.313Z,36.67
2022-12-08T21:17:22.554Z,39.40
2022-12-08T21:20:09.651Z,43.08
2022-12-08T21:22:56.082Z,39.22
2022-12-08T21:25:44.260Z,38.83
2022-12-08T21:28:33.925Z,35.65
2022-12-08T21:31:22.302Z,33.88
2022-12-08T21:34:10.190Z,33.70
2022-12-08T21:36:56.551Z,33.15
2022-12-08T21:39:42.535Z,36.38
2022-12-08T21:42:43.816Z,29.42
2022-12-08T21:45:30.198Z,34.58
2022-12-08T21:48:17.066Z,37.42
2022-12-08T21:51:05.393Z,37.13
2022-12-08T21:53:51.709Z,31.80
2022-12-08T21:56:37.710Z,28.75
2022-12-08T21:59:23.683Z,35.83
2022-12-08T22:02:19.469Z,32.60
2022-12-08T22:05:09.244Z,33.20
2022-12-08T22:07:58.798Z,37.00
2022-12-08T22:10:48.852Z,29.90
2022-12-08T22:13:37.014Z,37.40
2022-12-08T22:16:23.445Z,32.67
2022-12-08T22:19:10.180Z,36.45
2022-12-08T22:21:57.408Z,34.63
2022-12-08T22:24:44.413Z,29.60
2022-12-08T22:27:32.409Z,28.63
2022-12-08T22:30:18.769Z,32.30
2022-12-08T22:33:05.760Z,27.63
2022-12-08T22:35:56.942Z,35.35
2022-12-08T22:38:43.300Z,31.20
2022-12-08T22:41:29.438Z,31.38
2022-12-08T22:44:16.483Z,32.15
2022-12-08T22:47:02.726Z,39.45
2022-12-08T22:49:49.916Z,37.38
2022-12-08T22:52:36.871Z,31.90
2022-12-08T22:55:22.989Z,37.17
2022-12-08T22:58:09.426Z,27.50
2022-12-08T23:00:55.241Z,31.73
2022-12-08T23:03:41.255Z,37.63
2022-12-08T23:06:28.746Z,30.80
2022-12-08T23:09:15.239Z,33.03
2022-12-08T23:12:01.627Z,38.35
2022-12-08T23:14:47.883Z,29.55
2022-12-08T23:17:33.972Z,27.20
2022-12-08T23:20:20.361Z,29.15
2022-12-08T23:23:06.943Z,30.73
2022-12-08T23:25:53.354Z,27.88
2022-12-08T23:28:39.814Z,32.08
2022-12-08T23:31:26.567Z,34.50
2022-12-08T23:34:12.677Z,36.53
2022-12-08T23:36:58.567Z,30.58
2022-12-08T23:39:45.103Z,31.67
2022-12-08T23:42:31.867Z,34.08
2022-12-08T23:45:18.517Z,26.45
2022-12-08T23:48:04.601Z,31.73
2022-12-08T23:50:51.293Z,27.27
2022-12-08T23:53:37.792Z,32.00
2022-12-08T23:56:30.052Z,29.58
2022-12-08T23:59:16.747Z,29.02
